Time;durP1;ratioP1;P1;durP2;ratioP2;P2;SDS_P1;SDS_P2;PMS_P1;PMS_P2;Temp;Humidity;BMP_temperature;BMP_pressure;BME280_temperature;BME280_humidity;BME280_pressure;Samples;Min_cycle;Max_cycle;Signal;HPM_P1;HPM_P2
2022/02/03 00:00:20;;;;;;;;;;;;;;;10.47;73.33;101028.72;7354960;19;19915;-61
2022/02/03 00:02:55;;;;;;;;;;;;;;;10.47;72.97;101020.91;7361423;19;19940;-61
2022/02/03 00:05:31;;;;;;;;;;;;;;;10.47;73.13;101015.69;7367048;19;19937;-62
2022/02/03 00:24:24;;;;;;;;;;;;;;;10.51;73.21;101000.81;5448575;19;10020026;-62
2022/02/03 00:27:06;;;;;;;;;;;;;;;10.51;73.18;101001.69;4861751;19;10002067;-62
2022/02/03 00:48:46;;;;;;;;;;;;;;;10.54;73.52;100975.53;7365029;19;19935;-62
2022/02/03 00:51:12;;;;;;;;;;;;;;;10.52;72.98;100966.84;7355713;19;19935;-62
2022/02/03 00:53:38;;;;;;;;;;;;;;;10.52;73.12;100964.22;7360987;19;19915;-61
2022/02/03 00:56:13;;;;;;;;;;;;;;;10.52;73.48;100953.78;7371451;19;20380;-62
2022/02/03 00:58:50;;;;;;;;;;;;;;;10.52;73.04;100945.97;7372929;19;19936;-62
2022/02/03 01:01:17;;;;;;;;;;;;;;;10.51;73.41;100941.63;7368403;19;19922;-62
2022/02/03 01:03:43;;;;;;;;;;;;;;;10.51;73.13;100938.16;7373423;19;19927;-61
2022/02/03 01:06:12;;;;;;;;;;;;;;;10.51;73.04;100944.25;7365350;19;19921;-62
2022/02/03 01:08:41;;;;;;;;;;;;;;;10.50;73.38;100950.38;7359139;19;20391;-62
2022/02/03 01:11:13;;;;;;;;;;;;;;;10.50;73.03;100937.31;7361406;19;20002;-61
2022/02/03 01:19:06;;;;;;;;;;;;;;;10.51;73.02;100918.13;7366087;19;19998;-62
2022/02/03 01:37:51;;;;;;;;;;;;;;;10.39;73.46;100892.22;7352271;19;19931;-62
2022/02/03 01:46:16;;;;;;;;;;;;;;;10.40;73.05;100873.09;7263891;19;2004588;-61
2022/02/03 01:54:26;;;;;;;;;;;;;;;10.40;73.29;100878.31;7249083;19;2004546;-62
2022/02/03 01:56:55;;;;;;;;;;;;;;;10.39;73.14;100869.63;7349169;19;19935;-61
2022/02/03 01:59:24;;;;;;;;;;;;;;;10.41;72.97;100874.81;7361305;19;19919;-62
2022/02/03 02:01:51;;;;;;;;;;;;;;;10.41;72.93;100877.41;7363128;19;19915;-62
2022/02/03 02:04:28;;;;;;;;;;;;;;;10.40;73.29;100865.28;7354983;19;19922;-62
2022/02/03 02:07:12;;;;;;;;;;;;;;;10.41;73.06;100855.69;7359364;19;20985;-62
2022/02/03 02:10:02;;;;;;;;;;;;;;;10.26;73.14;100830.72;7357502;19;19954;-62
2022/02/03 02:12:52;;;;;;;;;;;;;;;10.40;73.31;100854.81;7361741;19;20742;-62
2022/02/03 02:42:57;;;;;;;;;;;;;;;10.44;72.96;100806.00;5129994;19;10001301;-61
2022/02/03 02:45:31;;;;;;;;;;;;;;;10.44;73.07;100801.66;7369012;19;19941;-62
2022/02/03 02:48:10;;;;;;;;;;;;;;;10.45;72.83;100800.78;7343689;19;19915;-62
2022/02/03 02:50:53;;;;;;;;;;;;;;;10.46;73.26;100788.56;7362257;19;20014;-62
2022/02/03 02:53:53;;;;;;;;;;;;;;;10.47;73.19;100774.63;7355007;19;20030;-62
2022/02/03 02:56:29;;;;;;;;;;;;;;;10.47;72.92;100767.66;7256110;19;2004296;-62
2022/02/03 02:59:22;;;;;;;;;;;;;;;10.47;73.07;100766.78;7346984;19;19932;-62
2022/02/03 03:32:22;;;;;;;;;;;;;;;10.33;72.83;100743.56;7366902;19;19915;-62
2022/02/03 03:37:32;;;;;;;;;;;;;;;10.29;72.50;100739.31;7357979;19;20256;-62
2022/02/03 03:40:01;;;;;;;;;;;;;;;10.26;72.84;100737.63;7346141;19;20025;-62
2022/02/03 03:42:29;;;;;;;;;;;;;;;10.24;72.92;100741.16;7363345;19;19934;-62
2022/02/03 03:44:57;;;;;;;;;;;;;;;10.23;72.90;100734.19;7332824;19;19964;-62
2022/02/03 03:47:27;;;;;;;;;;;;;;;10.21;73.03;100730.75;7365453;19;19923;-62
2022/02/03 03:49:55;;;;;;;;;;;;;;;10.21;72.83;100730.75;7367556;19;19927;-62
2022/02/03 03:52:26;;;;;;;;;;;;;;;10.20;73.04;100719.47;7362053;19;19929;-61
2022/02/03 03:55:23;;;;;;;;;;;;;;;10.20;73.08;100718.59;7366732;19;19936;-62
2022/02/03 04:40:43;;;;;;;;;;;;;;;10.17;73.60;100697.78;5884943;19;10001082;-60
2022/02/03 04:55:30;;;;;;;;;;;;;;;10.21;73.50;100671.59;7258561;19;2004686;-62
2022/02/03 05:12:17;;;;;;;;;;;;;;;10.25;73.67;100638.50;7272045;19;2004350;-61
2022/02/03 06:07:27;;;;;;;;;;;;;;;9.96;73.28;100593.00;7369419;19;20339;-61
2022/02/03 06:15:47;;;;;;;;;;;;;;;9.92;73.79;100569.63;7366045;19;20325;-62
2022/02/03 06:20:41;;;;;;;;;;;;;;;9.91;73.66;100566.16;7251989;19;2004610;-62
2022/02/03 06:21:14;;;;;;;;;;;;;;;9.90;73.59;100554.00;7154962;19;2004902;-61
2022/02/03 06:23:42;;;;;;;;;;;;;;;9.88;73.54;100566.22;3347029;19;10001234;-62
2022/02/03 06:29:20;;;;;;;;;;;;;;;9.85;73.86;100561.06;7259129;19;2005671;-61
2022/02/03 06:31:47;;;;;;;;;;;;;;;9.83;73.48;100552.41;7366539;19;20253;-62
2022/02/03 06:34:12;;;;;;;;;;;;;;;9.83;73.98;100541.97;7362685;19;19934;-61
2022/02/03 06:36:38;;;;;;;;;;;;;;;9.80;73.92;100542.06;7365383;19;19922;-62
2022/02/03 06:39:20;;;;;;;;;;;;;;;9.79;73.97;100556.00;7353741;19;19926;-60
2022/02/03 06:41:49;;;;;;;;;;;;;;;9.77;73.94;100544.72;7355200;19;20267;-62
2022/02/03 06:44:15;;;;;;;;;;;;;;;9.76;73.81;100561.28;7359732;19;20379;-61
2022/02/03 06:46:45;;;;;;;;;;;;;;;9.77;74.29;100552.56;7368548;19;19958;-62
2022/02/03 06:49:41;;;;;;;;;;;;;;;9.77;74.21;100548.19;7364953;19;20315;-62
2022/02/03 06:52:04;;;;;;;;;;;;;;;9.77;73.98;100562.97;7371335;19;19923;-62
2022/02/03 06:54:39;;;;;;;;;;;;;;;9.78;74.19;100554.25;7361087;19;19915;-62
2022/02/03 06:57:10;;;;;;;;;;;;;;;9.77;74.00;100557.78;7375081;19;19921;-62
2022/02/03 06:59:48;;;;;;;;;;;;;;;9.76;74.14;100563.88;7358393;19;20620;-62
2022/02/03 07:02:14;;;;;;;;;;;;;;;9.75;74.47;100563.03;7361969;19;19915;-63
2022/02/03 07:04:44;;;;;;;;;;;;;;;9.76;74.57;100556.06;7354303;19;19922;-62
2022/02/03 07:07:09;;;;;;;;;;;;;;;9.76;74.10;100556.06;7358260;19;19929;-61
2022/02/03 07:09:35;;;;;;;;;;;;;;;9.77;74.49;100566.44;7352924;19;19923;-62
2022/02/03 07:12:03;;;;;;;;;;;;;;;9.77;74.53;100558.63;7362926;19;19926;-61
2022/02/03 07:14:31;;;;;;;;;;;;;;;9.77;74.12;100553.41;7347625;19;19994;-62
2022/02/03 07:16:58;;;;;;;;;;;;;;;9.77;74.35;100557.78;7363524;19;20462;-61
2022/02/03 07:19:24;;;;;;;;;;;;;;;9.76;74.43;100549.09;7366349;19;20348;-62
2022/02/03 07:21:49;;;;;;;;;;;;;;;9.77;74.36;100540.38;7358068;19;19946;-62
2022/02/03 07:24:15;;;;;;;;;;;;;;;9.79;74.69;100542.97;7369787;19;19993;-61
2022/02/03 07:26:40;;;;;;;;;;;;;;;9.82;74.38;100545.47;7367009;19;19953;-63
2022/02/03 07:29:06;;;;;;;;;;;;;;;9.83;74.40;100547.19;7361641;19;20552;-62
2022/02/03 07:31:31;;;;;;;;;;;;;;;9.84;74.53;100536.75;7371351;19;19922;-62
2022/02/03 07:34:03;;;;;;;;;;;;;;;9.86;74.50;100544.53;7363361;19;19907;-61
2022/02/03 07:36:28;;;;;;;;;;;;;;;9.85;74.44;100550.66;7358898;19;19986;-62
2022/02/03 07:38:53;;;;;;;;;;;;;;;9.82;74.42;100545.47;7370301;19;19964;-62
2022/02/03 07:41:18;;;;;;;;;;;;;;;9.79;73.84;100545.56;7367984;19;19925;-62
2022/02/03 07:43:44;;;;;;;;;;;;;;;9.76;73.93;100548.22;7375742;19;19915;-61
2022/02/03 07:46:09;;;;;;;;;;;;;;;9.74;74.21;100547.41;7376655;19;19914;-62
2022/02/03 07:48:34;;;;;;;;;;;;;;;9.71;74.08;100545.72;7371929;19;19922;-62
2022/02/03 07:51:00;;;;;;;;;;;;;;;9.68;73.99;100563.19;7369468;19;20095;-62
2022/02/03 07:53:25;;;;;;;;;;;;;;;9.66;74.32;100564.97;7365677;19;19949;-62
2022/02/03 07:55:50;;;;;;;;;;;;;;;9.62;74.27;100557.19;7359150;19;19926;-62
2022/02/03 07:58:16;;;;;;;;;;;;;;;9.61;74.37;100552.88;7364029;19;20264;-62
2022/02/03 08:00:42;;;;;;;;;;;;;;;9.59;74.20;100552.06;7364613;19;19922;-62
2022/02/03 08:03:11;;;;;;;;;;;;;;;9.56;74.39;100544.28;7366840;19;19926;-62
2022/02/03 08:05:37;;;;;;;;;;;;;;;9.54;74.34;100551.31;7361082;19;19911;-62
2022/02/03 08:08:10;;;;;;;;;;;;;;;9.54;74.35;100550.44;7355462;19;19923;-62
2022/02/03 08:10:43;;;;;;;;;;;;;;;9.52;74.36;100547.00;7347409;19;19930;-62
2022/02/03 08:13:13;;;;;;;;;;;;;;;9.50;74.27;100544.44;7365196;19;19923;-61
2022/02/03 08:15:41;;;;;;;;;;;;;;;9.49;74.25;100544.47;7358325;19;19915;-62
2022/02/03 08:18:11;;;;;;;;;;;;;;;9.48;74.64;100543.63;7368525;19;20604;-62
2022/02/03 08:21:01;;;;;;;;;;;;;;;9.40;74.31;100537.69;4382602;19;10001662;-62
2022/02/03 08:26:03;;;;;;;;;;;;;;;9.45;74.54;100546.28;7366508;19;19927;-62
2022/02/03 08:31:28;;;;;;;;;;;;;;;9.47;74.68;100541.88;7353662;19;19915;-62
2022/02/03 08:33:55;;;;;;;;;;;;;;;9.51;74.97;100530.50;7367223;19;19962;-62
2022/02/03 08:36:21;;;;;;;;;;;;;;;9.57;75.37;100543.41;7366163;19;21462;-62
2022/02/03 08:38:50;;;;;;;;;;;;;;;9.62;75.01;100538.94;7369700;19;19925;-61
2022/02/03 08:41:15;;;;;;;;;;;;;;;9.68;75.27;100526.66;7368437;19;19955;-62
2022/02/03 08:43:42;;;;;;;;;;;;;;;9.75;75.16;100521.31;7360726;19;20706;-62
2022/02/03 08:46:09;;;;;;;;;;;;;;;9.83;75.32;100531.53;7365465;19;19922;-62
2022/02/03 08:48:34;;;;;;;;;;;;;;;9.90;75.49;100537.50;7355479;19;21567;-62
2022/02/03 08:51:00;;;;;;;;;;;;;;;9.96;75.20;100530.38;7365631;19;19922;-62
2022/02/03 08:53:40;;;;;;;;;;;;;;;10.01;75.37;100520.72;7356081;19;19919;-62
2022/02/03 08:56:23;;;;;;;;;;;;;;;10.06;75.24;100518.84;7361543;19;19919;-62
2022/02/03 08:59:16;;;;;;;;;;;;;;;10.11;74.89;100514.38;7362501;19;19990;-60
2022/02/03 10:00:26;;;;;;;;;;;;;;;13.09;71.86;100467.94;7354740;19;19953;-63
2022/02/03 10:02:59;;;;;;;;;;;;;;;13.20;71.53;100463.16;7356506;19;20278;-64
2022/02/03 10:05:35;;;;;;;;;;;;;;;13.28;71.00;100462.91;7363856;19;19919;-64
2022/02/03 10:08:00;;;;;;;;;;;;;;;13.33;70.82;100450.47;7361982;19;20259;-63
2022/02/03 10:10:27;;;;;;;;;;;;;;;13.39;70.32;100452.88;7359719;19;20264;-63
2022/02/03 10:12:53;;;;;;;;;;;;;;;13.41;70.32;100458.03;7358001;19;19918;-63
2022/02/03 10:15:20;;;;;;;;;;;;;;;13.43;70.12;100458.81;7359814;19;19998;-62
2022/02/03 10:17:48;;;;;;;;;;;;;;;13.48;70.31;100459.50;7359222;19;19922;-63
2022/02/03 10:20:16;;;;;;;;;;;;;;;13.54;70.40;100442.69;7356495;19;20475;-63
2022/02/03 10:22:47;;;;;;;;;;;;;;;13.57;69.35;100437.31;7353829;19;19960;-63
2022/02/03 10:25:17;;;;;;;;;;;;;;;13.50;69.21;100436.72;7362220;19;19926;-63
2022/02/03 10:27:43;;;;;;;;;;;;;;;13.44;68.84;100429.09;7355673;19;19914;-63
2022/02/03 10:30:19;;;;;;;;;;;;;;;13.31;68.76;100446.19;7365675;19;19951;-62
2022/02/03 10:32:44;;;;;;;;;;;;;;;13.20;68.68;100425.59;7362287;19;19915;-64
2022/02/03 10:35:17;;;;;;;;;;;;;;;13.10;68.32;100422.47;7354038;19;19950;-63
2022/02/03 10:37:47;;;;;;;;;;;;;;;13.04;68.72;100422.69;7353150;19;20370;-63
2022/02/03 10:40:40;;;;;;;;;;;;;;;13.04;68.88;100412.22;7362399;19;19930;-64
2022/02/03 10:43:35;;;;;;;;;;;;;;;13.13;69.22;100416.25;7261092;19;2004603;-64
2022/02/03 10:49:19;;;;;;;;;;;;;;;13.30;68.57;100389.41;1733886;19;10020275;-63
2022/02/03 10:57:48;;;;;;;;;;;;;;;13.47;67.45;100397.47;7368411;19;19946;-62
2022/02/03 11:03:12;;;;;;;;;;;;;;;13.49;67.67;100387.78;7367929;19;19956;-63
2022/02/03 11:08:31;;;;;;;;;;;;;;;13.51;67.27;100396.44;7373726;19;20319;-62
2022/02/03 11:11:00;;;;;;;;;;;;;;;13.54;67.22;100401.56;7364935;19;19923;-63
2022/02/03 11:13:35;;;;;;;;;;;;;;;13.67;67.56;100415.03;7361076;19;19918;-64
2022/02/03 11:16:02;;;;;;;;;;;;;;;13.82;67.50;100410.94;7366044;19;19915;-65
2022/02/03 11:18:27;;;;;;;;;;;;;;;13.89;66.91;100415.03;7368219;19;25386;-64
2022/02/03 11:20:53;;;;;;;;;;;;;;;13.87;66.68;100422.97;7366672;19;19927;-64
2022/02/03 11:24:05;;;;;;;;;;;;;;;13.83;66.31;100412.66;7369174;19;19922;-64
2022/02/03 11:26:23;;;;;;;;;;;;;;;13.72;66.64;100410.47;7257757;19;2006035;-63
2022/02/03 11:34:48;;;;;;;;;;;;;;;13.55;66.25;100395.41;7355095;19;19936;-63
2022/02/03 11:39:45;;;;;;;;;;;;;;;13.39;66.32;100391.69;7369171;19;19932;-63
2022/02/03 11:43:15;;;;;;;;;;;;;;;13.28;66.54;100370.25;7260838;19;2004306;-63
2022/02/03 11:46:07;;;;;;;;;;;;;;;13.32;67.55;100358.72;7157402;19;2004328;-63
2022/02/03 11:55:13;;;;;;;;;;;;;;;13.66;67.68;100337.25;7261937;19;2004789;-63
2022/02/03 11:58:02;;;;;;;;;;;;;;;13.69;67.07;100345.00;7260167;19;2004383;-63
2022/02/03 12:01:16;;;;;;;;;;;;;;;13.72;67.66;100329.97;7357416;19;19926;-63
2022/02/03 12:17:33;;;;;;;;;;;;;;;14.06;68.55;100310.19;7357030;19;19930;-62
2022/02/03 12:20:07;;;;;;;;;;;;;;;14.23;67.90;100297.16;7366664;19;19922;-62
2022/02/03 12:28:05;;;;;;;;;;;;;;;14.42;67.30;100291.94;7366959;19;19919;-63
2022/02/03 12:30:40;;;;;;;;;;;;;;;14.54;67.20;100285.28;7360956;19;20332;-63
2022/02/03 12:38:51;;;;;;;;;;;;;;;14.82;65.83;100258.59;5889598;19;10000452;-64
2022/02/03 12:41:20;;;;;;;;;;;;;;;14.89;65.92;100254.75;3759830;19;10001921;-63
2022/02/03 12:43:57;;;;;;;;;;;;;;;14.97;65.58;100262.28;7361225;19;19986;-63
2022/02/03 12:46:22;;;;;;;;;;;;;;;15.10;65.17;100242.34;7365122;19;19927;-63
2022/02/03 12:48:53;;;;;;;;;;;;;;;15.20;65.15;100237.47;7363753;19;19939;-63
2022/02/03 12:51:20;;;;;;;;;;;;;;;15.32;64.97;100242.16;7362015;19;19922;-63
2022/02/03 12:53:46;;;;;;;;;;;;;;;15.47;64.97;100248.44;7365549;19;20464;-63
2022/02/03 12:56:11;;;;;;;;;;;;;;;15.64;65.27;100237.06;7361181;19;19954;-63
2022/02/03 12:58:42;;;;;;;;;;;;;;;15.81;65.20;100232.66;7368642;19;19939;-62
2022/02/03 13:01:27;;;;;;;;;;;;;;;16.02;64.66;100221.94;7348061;19;20321;-63
2022/02/03 13:03:53;;;;;;;;;;;;;;;16.23;64.22;100215.53;7362656;19;20325;-62
2022/02/03 13:06:21;;;;;;;;;;;;;;;16.41;63.69;100218.06;7352243;19;20359;-63
2022/02/03 13:08:52;;;;;;;;;;;;;;;16.59;62.33;100225.00;7368826;19;19910;-62
2022/02/03 13:17:19;;;;;;;;;;;;;;;16.80;59.92;100210.63;7252316;19;2004206;-62
2022/02/03 13:27:31;;;;;;;;;;;;;;;16.59;58.95;100203.91;7370045;19;19921;-64
2022/02/03 13:30:05;;;;;;;;;;;;;;;16.51;59.49;100198.19;7364640;19;19939;-64
2022/02/03 13:32:51;;;;;;;;;;;;;;;16.44;59.09;100202.09;7338186;19;19923;-63
2022/02/03 13:37:55;;;;;;;;;;;;;;;16.37;59.22;100182.28;7359891;19;19935;-63
2022/02/03 13:40:22;;;;;;;;;;;;;;;16.31;59.49;100197.50;7353465;19;19918;-62
2022/02/03 13:42:50;;;;;;;;;;;;;;;16.27;59.29;100198.63;7362936;19;19938;-61
2022/02/03 13:45:18;;;;;;;;;;;;;;;16.22;59.14;100203.28;7356685;19;19958;-62
2022/02/03 13:47:43;;;;;;;;;;;;;;;16.14;59.10;100194.09;7359759;19;20556;-62
2022/02/03 13:50:12;;;;;;;;;;;;;;;16.00;59.10;100171.09;7358259;19;19911;-61
2022/02/03 13:53:03;;;;;;;;;;;;;;;15.87;59.37;100177.97;7364389;19;20362;-62
2022/02/03 14:20:38;;;;;;;;;;;;;;;14.80;60.92;100152.69;7366191;19;19977;-62
2022/02/03 14:28:16;;;;;;;;;;;;;;;14.62;61.29;100136.03;7350712;19;19945;-62
2022/02/03 14:30:45;;;;;;;;;;;;;;;14.59;61.71;100125.66;7364403;19;19915;-63
2022/02/03 14:33:12;;;;;;;;;;;;;;;14.59;61.51;100125.66;7347769;19;19923;-62
2022/02/03 14:35:38;;;;;;;;;;;;;;;14.60;62.13;100111.59;7361386;19;19935;-62
2022/02/03 14:38:15;;;;;;;;;;;;;;;14.60;62.26;100094.97;7358465;19;19934;-62
2022/02/03 14:40:55;;;;;;;;;;;;;;;14.67;62.65;100086.72;7355107;19;21148;-62
2022/02/03 14:43:20;;;;;;;;;;;;;;;14.79;62.18;100091.34;7365466;19;20345;-62
2022/02/03 14:45:45;;;;;;;;;;;;;;;14.90;62.54;100092.59;7363738;19;19954;-63
2022/02/03 14:48:14;;;;;;;;;;;;;;;15.01;62.26;100072.75;7362039;19;19919;-62
2022/02/03 14:50:40;;;;;;;;;;;;;;;15.14;62.26;100072.94;7363380;19;19927;-63
2022/02/03 14:53:14;;;;;;;;;;;;;;;15.21;62.17;100074.34;7359177;19;19979;-62
2022/02/03 14:58:28;;;;;;;;;;;;;;;15.35;61.42;100067.50;7367772;19;19958;-63
2022/02/03 15:00:56;;;;;;;;;;;;;;;15.37;61.34;100055.97;7356321;19;19923;-62
2022/02/03 15:03:23;;;;;;;;;;;;;;;15.40;61.69;100054.94;7365263;19;19926;-62
2022/02/03 15:05:49;;;;;;;;;;;;;;;15.41;61.75;100051.38;7347860;19;19926;-62
2022/02/03 15:08:19;;;;;;;;;;;;;;;15.42;61.32;100037.31;7365447;19;19922;-62
2022/02/03 15:11:10;;;;;;;;;;;;;;;15.42;60.69;100034.69;7342628;19;19923;-62
2022/02/03 15:13:41;;;;;;;;;;;;;;;15.37;60.48;100036.72;7363506;19;20434;-62
2022/02/03 15:16:08;;;;;;;;;;;;;;;15.29;60.55;100037.94;7354997;19;20427;-62
2022/02/03 15:18:34;;;;;;;;;;;;;;;15.20;60.00;100030.53;7362654;19;19955;-61
2022/02/03 15:20:59;;;;;;;;;;;;;;;15.13;60.53;100052.84;7360846;19;19918;-62
2022/02/03 15:23:25;;;;;;;;;;;;;;;15.08;60.50;100025.09;7363134;19;19990;-62
2022/02/03 15:25:50;;;;;;;;;;;;;;;14.99;60.92;100005.38;7353999;19;19928;-62
2022/02/03 15:28:17;;;;;;;;;;;;;;;14.94;60.56;100007.38;7360881;19;20323;-62
2022/02/03 15:30:50;;;;;;;;;;;;;;;14.90;60.69;100003.22;7083183;19;10000525;-62
2022/02/03 15:33:17;;;;;;;;;;;;;;;14.90;61.09;99988.31;1621555;19;10001863;-63
2022/02/03 15:35:49;;;;;;;;;;;;;;;14.94;61.55;99996.88;7351411;19;20270;-62
2022/02/03 15:38:18;;;;;;;;;;;;;;;15.01;61.56;99993.00;7358424;19;19945;-63
2022/02/03 15:40:43;;;;;;;;;;;;;;;15.10;61.16;99989.88;7357128;19;19927;-62
2022/02/03 15:43:25;;;;;;;;;;;;;;;15.18;61.41;99982.44;7365813;19;19929;-63
2022/02/03 15:45:54;;;;;;;;;;;;;;;15.29;61.29;99989.75;7363945;19;19923;-62
2022/02/03 16:17:42;;;;;;;;;;;;;;;14.92;59.97;99948.78;7361110;19;19962;-63
2022/02/03 16:20:19;;;;;;;;;;;;;;;14.84;60.04;99943.94;7364882;19;19930;-63
2022/02/03 16:22:55;;;;;;;;;;;;;;;14.76;60.07;99936.47;7365684;19;20332;-62
2022/02/03 16:52:17;;;;;;;;;;;;;;;14.02;60.72;99896.44;7361622;19;20030;-62
2022/02/03 16:54:42;;;;;;;;;;;;;;;13.97;61.18;99890.56;7363513;19;19926;-62
2022/02/03 16:57:14;;;;;;;;;;;;;;;13.94;61.02;99901.22;7365530;19;19922;-61
2022/02/03 16:59:49;;;;;;;;;;;;;;;13.90;61.27;99886.56;7365273;19;19926;-62
2022/02/03 17:02:15;;;;;;;;;;;;;;;13.86;61.16;99883.22;7365332;19;20369;-62
2022/02/03 17:04:41;;;;;;;;;;;;;;;13.83;61.06;99879.88;7365401;19;19922;-61
2022/02/03 17:07:06;;;;;;;;;;;;;;;13.81;61.24;99884.38;7358883;19;19923;-62
2022/02/03 17:09:32;;;;;;;;;;;;;;;13.77;61.60;99871.41;7366764;19;19930;-61
2022/02/03 17:11:58;;;;;;;;;;;;;;;13.73;61.44;99882.97;7363797;19;19954;-62
2022/02/03 17:14:25;;;;;;;;;;;;;;;13.70;61.74;99885.75;7367256;19;19923;-62
2022/02/03 17:16:50;;;;;;;;;;;;;;;13.68;61.40;99873.63;7363318;19;19921;-62
2022/02/03 17:19:21;;;;;;;;;;;;;;;13.66;61.79;99884.19;7268133;19;20696;-61
2022/02/03 17:21:46;;;;;;;;;;;;;;;13.66;61.40;99872.84;1172656;19;10002099;-63
2022/02/03 17:24:11;;;;;;;;;;;;;;;13.59;61.29;99859.19;7365470;19;19943;-62
2022/02/03 17:29:36;;;;;;;;;;;;;;;13.63;61.69;99844.13;7370840;19;19919;-62
2022/02/03 18:09:49;;;;;;;;;;;;;;;13.50;62.51;99831.63;7361473;19;20284;-62
2022/02/03 18:31:29;;;;;;;;;;;;;;;13.50;62.32;99807.19;7248903;19;2004271;-62
2022/02/03 18:34:18;;;;;;;;;;;;;;;13.52;62.49;99809.72;7356314;19;19927;-62
2022/02/03 18:50:26;;;;;;;;;;;;;;;13.46;62.99;99784.63;7353441;19;19951;-62
2022/02/03 18:58:17;;;;;;;;;;;;;;;13.42;63.31;99775.22;7356109;19;20332;-63
2022/02/03 19:09:25;;;;;;;;;;;;;;;13.33;63.21;99760.81;7354910;19;19919;-62
2022/02/03 19:27:55;;;;;;;;;;;;;;;12.50;66.16;99766.44;7362217;19;20571;-64
2022/02/03 20:03:26;;;;;;;;;;;;;;;10.99;68.41;99934.78;7357183;19;19907;-62
2022/02/03 20:09:00;;;;;;;;;;;;;;;10.79;68.70;99953.78;7357859;19;19932;-62
2022/02/03 20:11:16;;;;;;;;;;;;;;;10.68;68.92;99959.41;7259737;19;2004606;-62
2022/02/03 20:13:41;;;;;;;;;;;;;;;10.60;68.79;99962.28;7349489;19;20626;-63
2022/02/03 20:16:07;;;;;;;;;;;;;;;10.53;69.04;99963.38;7361092;19;19939;-63
2022/02/03 20:18:32;;;;;;;;;;;;;;;10.48;69.21;99969.66;7352708;19;19942;-62
2022/02/03 20:20:58;;;;;;;;;;;;;;;10.42;69.26;99973.34;7357335;19;19952;-62
2022/02/03 20:23:24;;;;;;;;;;;;;;;10.37;69.26;99975.25;7350855;19;20006;-63
2022/02/03 20:25:56;;;;;;;;;;;;;;;10.31;69.29;99984.16;7350416;19;19919;-63
2022/02/03 20:28:22;;;;;;;;;;;;;;;10.28;69.26;99980.78;7359800;19;19935;-63
2022/02/03 20:30:47;;;;;;;;;;;;;;;10.23;69.41;99982.66;7352947;19;19922;-62
2022/02/03 20:33:13;;;;;;;;;;;;;;;10.18;69.38;100000.22;7345006;19;19926;-62
2022/02/03 20:35:39;;;;;;;;;;;;;;;10.12;69.65;99999.50;7349029;19;19928;-62
2022/02/03 20:38:04;;;;;;;;;;;;;;;10.06;69.58;100002.31;7350441;19;19911;-62
2022/02/03 20:40:29;;;;;;;;;;;;;;;10.00;69.71;100010.34;7367210;19;19923;-62
2022/02/03 20:42:55;;;;;;;;;;;;;;;9.94;69.56;100018.38;7364755;19;19930;-63
2022/02/03 20:45:20;;;;;;;;;;;;;;;9.90;69.64;100016.75;7352550;19;19927;-63
2022/02/03 20:47:45;;;;;;;;;;;;;;;9.86;69.97;100017.72;7353405;19;20349;-62
2022/02/03 20:50:17;;;;;;;;;;;;;;;9.82;69.51;100021.31;7355219;19;19930;-63
2022/02/03 20:52:42;;;;;;;;;;;;;;;9.77;70.09;100012.78;7355397;19;19952;-63
2022/02/03 20:55:07;;;;;;;;;;;;;;;9.76;70.05;100034.56;7358960;19;20334;-62
2022/02/03 20:57:33;;;;;;;;;;;;;;;9.74;69.72;100036.38;7356223;19;19915;-64
2022/02/03 21:05:12;;;;;;;;;;;;;;;9.66;70.19;100040.94;7358547;19;19979;-63
2022/02/03 21:07:37;;;;;;;;;;;;;;;9.62;69.91;100038.41;7356657;19;20257;-63
2022/02/03 21:10:06;;;;;;;;;;;;;;;9.60;69.87;100042.84;7359729;19;19918;-61
2022/02/03 21:12:32;;;;;;;;;;;;;;;9.56;69.87;100045.56;7355974;19;19935;-63
2022/02/03 21:15:21;;;;;;;;;;;;;;;9.47;70.23;100046.69;4222851;19;10001453;-63
2022/02/03 21:17:46;;;;;;;;;;;;;;;9.49;70.42;100063.16;5533718;19;10001031;-63
2022/02/03 21:20:17;;;;;;;;;;;;;;;9.47;70.60;100067.53;7351237;19;20574;-62
2022/02/03 21:22:42;;;;;;;;;;;;;;;9.46;70.69;100070.19;7364811;19;20419;-62
2022/02/03 21:25:19;;;;;;;;;;;;;;;9.45;70.77;100071.94;7364484;19;19914;-63
2022/02/03 21:27:46;;;;;;;;;;;;;;;9.44;70.68;100070.25;7365367;19;20244;-63
2022/02/03 21:30:12;;;;;;;;;;;;;;;9.44;70.61;100085.88;7362110;19;19915;-63
2022/02/03 21:32:37;;;;;;;;;;;;;;;9.44;70.73;100082.41;7364743;19;19923;-63
2022/02/03 21:35:07;;;;;;;;;;;;;;;9.42;70.65;100090.25;7364095;19;19925;-62
2022/02/03 21:37:32;;;;;;;;;;;;;;;9.40;70.48;100099.88;7363850;19;19940;-64
2022/02/03 21:39:58;;;;;;;;;;;;;;;9.38;70.49;100100.81;7355815;19;20289;-63
2022/02/03 21:42:23;;;;;;;;;;;;;;;9.35;70.41;100112.19;7362566;19;19919;-63
2022/02/03 21:44:48;;;;;;;;;;;;;;;9.32;70.56;100107.88;7361268;19;20668;-63
2022/02/03 21:47:14;;;;;;;;;;;;;;;9.29;70.61;100117.56;7352273;19;19915;-63
2022/02/03 21:49:39;;;;;;;;;;;;;;;9.26;70.42;100109.81;7363808;19;20276;-64
2022/02/03 21:52:04;;;;;;;;;;;;;;;9.23;70.63;100112.53;7355670;19;19915;-62
2022/02/03 21:54:34;;;;;;;;;;;;;;;9.20;70.63;100125.63;7367189;19;19927;-63
2022/02/03 21:57:00;;;;;;;;;;;;;;;9.16;70.47;100127.44;7360683;19;19949;-63
2022/02/03 21:59:26;;;;;;;;;;;;;;;9.13;70.93;100131.91;7351646;19;19926;-63
2022/02/03 22:01:51;;;;;;;;;;;;;;;9.09;70.61;100131.97;7362753;19;19932;-64
2022/02/03 22:04:16;;;;;;;;;;;;;;;9.07;70.88;100127.66;7365543;19;19927;-64
2022/02/03 22:06:42;;;;;;;;;;;;;;;9.03;71.01;100126.06;7360510;19;19922;-63
2022/02/03 22:09:07;;;;;;;;;;;;;;;9.00;71.06;100132.19;7365211;19;19941;-63
2022/02/03 22:11:32;;;;;;;;;;;;;;;8.98;70.84;100139.19;7343366;19;19943;-63
2022/02/03 22:13:59;;;;;;;;;;;;;;;8.95;71.02;100139.25;7358989;19;19954;-63
2022/02/03 22:16:26;;;;;;;;;;;;;;;8.93;70.79;100141.06;7366844;19;20631;-63
2022/02/03 22:18:52;;;;;;;;;;;;;;;8.90;71.10;100141.13;7364830;19;19915;-64
2022/02/03 22:26:46;;;;;;;;;;;;;;;8.84;71.37;100146.50;7364545;19;19950;-64
2022/02/03 22:42:49;;;;;;;;;;;;;;;8.71;71.27;100160.69;7254078;19;2004529;-64
2022/02/03 22:45:24;;;;;;;;;;;;;;;8.69;71.08;100157.28;7363641;19;19919;-64
2022/02/03 22:50:15;;;;;;;;;;;;;;;8.66;71.65;100162.53;7362981;19;19907;-63
2022/02/03 22:52:42;;;;;;;;;;;;;;;8.63;71.69;100153.06;7373859;19;20332;-64
2022/02/03 22:55:08;;;;;;;;;;;;;;;8.61;71.39;100147.03;7355320;19;19974;-62
2022/02/03 22:57:33;;;;;;;;;;;;;;;8.61;71.75;100149.63;7371819;19;19935;-63
2022/02/03 23:00:12;;;;;;;;;;;;;;;8.61;71.53;100159.19;7371072;19;19986;-63
2022/02/03 23:02:37;;;;;;;;;;;;;;;8.57;71.66;100161.88;7364612;19;19919;-63
2022/02/03 23:05:04;;;;;;;;;;;;;;;8.56;72.05;100165.34;7378497;19;19936;-63
2022/02/03 23:08:16;;;;;;;;;;;;;;;8.55;71.67;100155.84;7373849;19;19918;-63
2022/02/03 23:10:40;;;;;;;;;;;;;;;8.45;71.93;100149.13;7371446;19;19921;-63
2022/02/03 23:13:23;;;;;;;;;;;;;;;8.49;71.69;100161.19;7373299;19;19944;-63
2022/02/03 23:16:02;;;;;;;;;;;;;;;8.47;71.48;100162.97;7364701;19;19931;-63
2022/02/03 23:21:45;;;;;;;;;;;;;;;8.41;72.05;100168.28;7360163;19;19979;-63
2022/02/03 23:24:11;;;;;;;;;;;;;;;8.38;71.66;100163.19;7269502;19;2004731;-63
2022/02/03 23:26:36;;;;;;;;;;;;;;;8.36;72.35;100156.25;7364237;19;19919;-62
2022/02/03 23:29:06;;;;;;;;;;;;;;;8.35;71.94;100163.19;7366205;19;19939;-63
2022/02/03 23:31:48;;;;;;;;;;;;;;;8.33;72.26;100155.44;7367084;19;19923;-63
2022/02/03 23:34:14;;;;;;;;;;;;;;;8.32;71.84;100152.88;7357999;19;20002;-63
2022/02/03 23:36:40;;;;;;;;;;;;;;;8.30;71.85;100152.91;7365254;19;20356;-63
2022/02/03 23:44:27;;;;;;;;;;;;;;;8.25;72.22;100153.88;7362916;19;20010;-63
